Time;durP1;ratioP1;P1;durP2;ratioP2;P2;SDS_P1;SDS_P2;PMS_P1;PMS_P2;Temp;Humidity;BMP_temperature;BMP_pressure;BME280_temperature;BME280_humidity;BME280_pressure;Samples;Min_cycle;Max_cycle;Signal;HPM_P1;HPM_P2
2022/08/19 00:01:48;;;;;;;4.38;3.00;;;17.80;84.00;;;;;;5054995;28;20033;-46
2022/08/19 00:04:17;;;;;;;4.13;3.05;;;17.80;84.20;;;;;;5050722;28;20021;-46
2022/08/19 00:06:45;;;;;;;4.13;3.35;;;17.90;84.60;;;;;;5061641;28;20132;-50
2022/08/19 00:09:15;;;;;;;7.68;3.35;;;17.90;85.10;;;;;;5067223;28;20043;-46
2022/08/19 00:11:42;;;;;;;4.50;2.90;;;17.90;85.10;;;;;;5051495;28;20059;-46
2022/08/19 00:14:09;;;;;;;4.05;2.97;;;17.90;85.00;;;;;;5064461;28;20029;-48
2022/08/19 00:16:37;;;;;;;5.57;3.58;;;17.90;85.30;;;;;;5050125;28;20461;-47
2022/08/19 00:19:06;;;;;;;4.53;3.25;;;17.80;85.10;;;;;;5069778;28;20082;-48
2022/08/19 00:21:31;;;;;;;4.78;3.08;;;17.80;84.90;;;;;;5066103;28;20028;-46
2022/08/19 00:24:00;;;;;;;4.90;3.88;;;17.80;84.80;;;;;;5035052;28;20452;-46
2022/08/19 00:26:28;;;;;;;6.03;3.53;;;17.80;85.00;;;;;;5058145;28;20043;-46
2022/08/19 00:28:56;;;;;;;4.68;3.67;;;17.70;85.00;;;;;;5049850;28;20039;-46
2022/08/19 00:31:22;;;;;;;4.93;3.10;;;17.70;85.30;;;;;;5041050;28;20119;-46
2022/08/19 00:33:51;;;;;;;6.88;5.03;;;17.70;85.20;;;;;;5054630;28;20786;-46
2022/08/19 00:36:19;;;;;;;6.93;5.15;;;17.70;85.20;;;;;;5038622;28;20472;-46
2022/08/19 00:38:47;;;;;;;5.38;4.13;;;17.70;85.60;;;;;;5050044;28;20032;-46
2022/08/19 00:41:20;;;;;;;4.80;3.10;;;17.70;85.60;;;;;;5048179;28;20121;-48
2022/08/19 00:44:08;;;;;;;5.85;3.15;;;17.70;85.30;;;;;;5048608;28;20025;-49
2022/08/19 00:46:37;;;;;;;3.97;2.92;;;17.70;85.50;;;;;;5048585;28;20113;-47
2022/08/19 00:49:19;;;;;;;3.90;3.15;;;17.70;85.50;;;;;;5051091;28;20021;-48
2022/08/19 00:51:48;;;;;;;7.50;4.10;;;17.70;85.50;;;;;;5058123;28;20110;-46
2022/08/19 00:54:15;;;;;;;4.00;2.88;;;17.70;85.20;;;;;;5042593;28;20383;-47
2022/08/19 00:56:43;;;;;;;3.92;2.90;;;17.70;85.20;;;;;;5041769;28;20032;-47
2022/08/19 00:59:10;;;;;;;5.60;3.30;;;17.70;85.00;;;;;;5059773;28;20040;-47
2022/08/19 01:01:40;;;;;;;6.38;3.15;;;17.70;85.20;;;;;;5053554;28;20036;-47
2022/08/19 01:04:07;;;;;;;5.15;3.47;;;17.70;85.50;;;;;;5048821;28;20036;-48
2022/08/19 01:06:37;;;;;;;5.68;4.35;;;17.70;85.30;;;;;;5062023;28;20048;-46
2022/08/19 01:09:04;;;;;;;;;;;17.70;85.30;;;;;;5061366;28;20029;-49
2022/08/19 01:11:39;;;;;;;5.65;3.75;;;17.70;85.50;;;;;;5078470;28;20002;-47
2022/08/19 01:14:06;;;;;;;6.07;3.70;;;17.70;85.40;;;;;;5068729;28;20036;-46
2022/08/19 01:16:34;;;;;;;5.03;3.60;;;17.70;85.50;;;;;;5064935;28;20036;-47
2022/08/19 01:19:03;;;;;;;4.65;3.60;;;17.70;85.30;;;;;;5049148;28;20025;-46
2022/08/19 01:21:52;;;;;;;7.00;2.95;;;17.60;85.50;;;;;;5065770;28;20032;-47
2022/08/19 01:24:20;;;;;;;4.80;4.13;;;17.70;85.70;;;;;;5072149;28;20049;-46
2022/08/19 01:26:48;;;;;;;4.45;3.42;;;17.60;85.40;;;;;;5045549;28;20036;-46
2022/08/19 01:29:14;;;;;;;6.18;4.50;;;17.60;85.40;;;;;;5055055;28;20461;-46
2022/08/19 01:31:41;;;;;;;7.35;5.20;;;17.60;85.20;;;;;;5054642;28;20032;-46
2022/08/19 01:34:09;;;;;;;5.05;3.67;;;17.50;85.40;;;;;;5053896;28;20025;-47
2022/08/19 01:36:47;;;;;;;4.93;3.08;;;17.50;85.10;;;;;;5063001;28;20040;-46
2022/08/19 01:39:17;;;;;;;6.70;3.30;;;17.50;85.20;;;;;;5064674;28;20029;-45
2022/08/19 01:41:45;;;;;;;4.60;3.50;;;17.50;84.60;;;;;;5055821;28;20028;-47
2022/08/19 01:44:11;;;;;;;4.35;3.20;;;17.50;84.50;;;;;;5055230;28;20041;-46
2022/08/19 01:46:40;;;;;;;3.67;2.78;;;17.50;84.80;;;;;;5064129;28;20365;-46
2022/08/19 01:49:08;;;;;;;5.47;2.90;;;17.50;85.20;;;;;;5071096;28;20107;-46
2022/08/19 01:51:37;;;;;;;5.45;3.28;;;17.50;85.40;;;;;;5058501;28;20025;-46
2022/08/19 01:54:04;;;;;;;5.35;3.20;;;17.50;85.00;;;;;;5053051;28;20052;-46
2022/08/19 01:56:31;;;;;;;4.68;3.10;;;17.50;84.80;;;;;;5050625;28;20127;-47
2022/08/19 01:59:08;;;;;;;4.53;3.05;;;17.50;85.00;;;;;;5058205;28;20024;-46
2022/08/19 02:01:35;;;;;;;8.77;3.78;;;17.40;85.10;;;;;;5070081;28;20122;-46
2022/08/19 02:04:02;;;;;;;5.65;3.47;;;17.40;85.30;;;;;;5052253;28;20031;-47
2022/08/19 02:06:29;;;;;;;5.70;3.72;;;17.40;85.60;;;;;;5048191;28;20025;-46
2022/08/19 02:08:57;;;;;;;6.60;4.05;;;17.40;85.70;;;;;;5063311;28;20020;-47
2022/08/19 02:11:31;;;;;;;4.82;3.92;;;17.40;85.40;;;;;;5051756;28;20033;-46
2022/08/19 02:14:00;;;;;;;6.18;3.53;;;17.40;84.70;;;;;;5033584;28;20029;-48
2022/08/19 02:16:26;;;;;;;4.95;3.47;;;17.40;84.90;;;;;;5044994;28;20036;-46
2022/08/19 02:18:54;;;;;;;7.22;3.50;;;17.40;85.10;;;;;;5057415;28;20100;-46
2022/08/19 02:21:23;;;;;;;5.55;3.13;;;17.40;85.30;;;;;;5061299;28;20156;-46
2022/08/19 02:23:50;;;;;;;7.25;3.47;;;17.40;85.50;;;;;;5051665;28;20021;-45
2022/08/19 02:26:18;;;;;;;5.68;4.28;;;17.40;85.70;;;;;;5059688;28;20033;-46
2022/08/19 02:28:48;;;;;;;7.65;4.78;;;17.40;85.80;;;;;;5062386;28;20029;-47
2022/08/19 02:31:20;;;;;;;4.13;3.42;;;17.40;85.00;;;;;;5039583;28;20033;-46
2022/08/19 02:33:46;;;;;;;5.28;3.58;;;17.40;84.90;;;;;;5043414;28;20036;-46
2022/08/19 02:36:15;;;;;;;6.10;3.50;;;17.40;84.90;;;;;;5065643;28;20532;-46
2022/08/19 02:38:43;;;;;;;5.23;3.83;;;17.40;85.10;;;;;;5052410;28;20024;-46
2022/08/19 02:41:23;;;;;;;5.07;3.28;;;17.40;85.10;;;;;;5070428;28;20087;-46
2022/08/19 02:43:50;;;;;;;5.00;2.97;;;17.40;85.20;;;;;;5047614;28;20033;-46
2022/08/19 02:46:22;;;;;;;6.38;4.43;;;17.40;85.50;;;;;;5059080;28;20377;-46
2022/08/19 02:48:53;;;;;;;6.30;4.57;;;17.40;85.60;;;;;;5070157;28;20036;-46
2022/08/19 02:51:25;;;;;;;7.32;4.90;;;17.40;85.60;;;;;;5068931;28;20475;-46
2022/08/19 02:53:53;;;;;;;9.57;5.95;;;17.40;85.70;;;;;;5050642;28;20040;-47
2022/08/19 02:56:21;;;;;;;6.75;5.15;;;17.40;85.60;;;;;;5039647;28;20056;-46
2022/08/19 02:58:48;;;;;;;6.72;4.90;;;17.40;85.20;;;;;;5049528;28;20025;-46
2022/08/19 03:01:32;;;;;;;5.47;4.00;;;17.30;85.20;;;;;;5059012;28;20035;-46
2022/08/19 03:04:02;;;;;;;7.45;4.90;;;17.30;85.30;;;;;;5037698;28;20792;-46
2022/08/19 03:06:30;;;;;;;6.03;4.80;;;17.40;85.50;;;;;;5050983;28;20167;-47
2022/08/19 03:08:57;;;;;;;7.80;5.28;;;17.30;85.30;;;;;;5059183;28;20032;-46
2022/08/19 03:11:30;;;;;;;6.47;5.13;;;17.20;84.90;;;;;;5069670;28;20110;-46
2022/08/19 03:13:59;;;;;;;5.78;4.93;;;17.20;85.10;;;;;;5068414;28;20032;-48
2022/08/19 03:16:28;;;;;;;6.72;3.80;;;17.20;85.20;;;;;;5061505;28;20116;-47
2022/08/19 03:19:00;;;;;;;4.07;3.20;;;17.10;85.30;;;;;;5069256;28;20031;-49
2022/08/19 03:21:29;;;;;;;7.38;4.28;;;17.00;85.20;;;;;;5064669;28;20507;-47
2022/08/19 03:23:58;;;;;;;5.70;4.10;;;16.90;85.70;;;;;;5053827;28;20020;-47
2022/08/19 03:26:26;;;;;;;6.55;4.28;;;16.90;86.20;;;;;;5067955;28;20062;-49
2022/08/19 03:28:55;;;;;;;5.47;4.35;;;16.80;86.20;;;;;;5061925;28;20044;-47
2022/08/19 03:31:24;;;;;;;5.57;4.68;;;16.70;86.20;;;;;;5044649;28;20040;-46
2022/08/19 03:33:53;;;;;;;6.50;3.50;;;16.60;86.40;;;;;;5060540;28;20458;-48
2022/08/19 03:36:23;;;;;;;5.93;4.40;;;16.50;86.70;;;;;;5049780;28;20116;-48
2022/08/19 03:38:54;;;;;;;;;;;16.50;86.90;;;;;;5056510;28;20043;-46
2022/08/19 03:41:28;;;;;;;7.43;4.78;;;16.40;87.00;;;;;;5069938;28;19935;-48
2022/08/19 03:43:54;;;;;;;10.93;7.30;;;16.40;87.10;;;;;;5064277;28;20025;-50
2022/08/19 03:46:33;;;;;;;11.30;8.90;;;16.30;87.30;;;;;;5054609;28;20044;-46
2022/08/19 03:49:03;;;;;;;13.18;11.40;;;16.20;87.60;;;;;;5060216;28;20354;-46
2022/08/19 03:51:36;;;;;;;15.48;13.98;;;16.20;87.70;;;;;;5058039;28;20040;-46
2022/08/19 03:54:07;;;;;;;16.65;14.02;;;16.10;87.90;;;;;;5054807;28;20107;-46
2022/08/19 03:56:39;;;;;;;18.00;15.55;;;16.10;87.90;;;;;;5058295;28;20041;-47
2022/08/19 03:59:10;;;;;;;17.17;15.43;;;15.90;87.90;;;;;;5043786;28;20033;-46
2022/08/19 04:01:39;;;;;;;17.90;16.17;;;15.90;88.10;;;;;;5056931;28;20024;-46
2022/08/19 04:04:09;;;;;;;16.80;15.30;;;15.90;88.20;;;;;;5063800;28;20036;-46
2022/08/19 04:06:38;;;;;;;17.90;15.07;;;15.80;88.10;;;;;;5067322;28;20291;-46
2022/08/19 04:09:08;;;;;;;17.13;15.45;;;15.80;88.40;;;;;;5066169;28;20040;-46
2022/08/19 04:11:41;;;;;;;17.10;15.45;;;15.70;88.50;;;;;;5065263;28;20056;-46
2022/08/19 04:14:11;;;;;;;16.48;14.65;;;15.70;88.60;;;;;;5064951;28;20054;-46
2022/08/19 04:16:41;;;;;;;16.05;14.45;;;15.60;88.50;;;;;;5062248;28;20123;-47
2022/08/19 04:19:06;;;;;;;16.00;14.43;;;15.60;88.80;;;;;;5062744;28;20044;-48
2022/08/19 04:21:37;;;;;;;17.85;16.10;;;15.60;88.90;;;;;;5068429;28;20024;-45
2022/08/19 04:24:04;;;;;;;16.65;13.93;;;15.50;89.10;;;;;;5067032;28;20027;-44
2022/08/19 04:26:38;;;;;;;15.90;14.10;;;15.50;89.20;;;;;;5049056;28;20036;-46
2022/08/19 04:29:12;;;;;;;16.35;13.60;;;15.50;89.10;;;;;;5066995;28;20525;-48
2022/08/19 04:31:40;;;;;;;15.13;13.55;;;15.40;89.00;;;;;;5038088;28;20068;-46
2022/08/19 04:34:12;;;;;;;14.43;13.07;;;15.40;89.10;;;;;;5046832;28;20036;-45
2022/08/19 04:36:44;;;;;;;13.38;11.73;;;15.40;88.90;;;;;;5049014;28;20024;-48
2022/08/19 04:39:22;;;;;;;12.52;11.35;;;15.30;89.00;;;;;;5066949;28;20075;-45
2022/08/19 04:44:36;;;;;;;12.18;10.75;;;15.20;89.00;;;;;;5063137;28;20410;-45
2022/08/19 04:47:06;;;;;;;11.70;10.38;;;15.20;89.20;;;;;;5047152;28;20044;-46
2022/08/19 04:49:32;;;;;;;10.18;8.90;;;15.30;89.60;;;;;;5056739;28;20033;-47
2022/08/19 04:51:59;;;;;;;10.43;9.30;;;15.30;89.10;;;;;;5045322;28;20116;-44
2022/08/19 04:54:26;;;;;;;10.40;9.43;;;15.30;88.70;;;;;;5048833;28;20081;-45
2022/08/19 04:56:53;;;;;;;9.77;8.75;;;15.30;88.50;;;;;;5047682;28;20047;-46
2022/08/19 04:59:23;;;;;;;12.40;9.18;;;15.20;88.40;;;;;;5058362;28;20032;-47
2022/08/19 05:01:50;;;;;;;9.32;8.30;;;15.20;88.50;;;;;;5042388;28;20408;-44
2022/08/19 05:04:20;;;;;;;8.85;7.95;;;15.10;88.50;;;;;;5064541;28;20402;-45
2022/08/19 05:06:51;;;;;;;9.00;8.07;;;15.10;88.30;;;;;;5066362;28;20529;-47
2022/08/19 05:09:17;;;;;;;9.25;7.90;;;15.10;88.30;;;;;;5063414;28;20032;-49
2022/08/19 05:11:44;;;;;;;9.10;6.75;;;15.00;88.30;;;;;;5064980;28;20083;-47
2022/08/19 05:14:14;;;;;;;11.45;9.05;;;15.00;88.30;;;;;;5063723;28;20020;-47
2022/08/19 05:16:41;;;;;;;8.32;7.53;;;15.10;88.70;;;;;;5057720;28;20020;-45
2022/08/19 05:24:40;;;;;;;10.20;8.65;;;15.20;88.70;;;;;;5065583;28;20032;-46
2022/08/19 05:27:07;;;;;;;9.23;8.32;;;15.10;88.40;;;;;;5066977;28;20649;-45
2022/08/19 05:29:35;;;;;;;9.70;8.70;;;15.20;88.60;;;;;;5066395;28;20020;-46
2022/08/19 05:32:10;;;;;;;8.73;7.82;;;15.20;88.60;;;;;;5048558;28;20055;-45
2022/08/19 05:34:38;;;;;;;9.82;8.82;;;15.20;88.50;;;;;;5057107;28;20432;-48
2022/08/19 05:37:08;;;;;;;10.70;8.63;;;15.20;88.50;;;;;;5043139;28;20024;-46
2022/08/19 05:39:37;;;;;;;10.00;8.93;;;15.10;88.70;;;;;;5066501;28;20027;-48
2022/08/19 05:42:10;;;;;;;11.35;9.20;;;15.10;88.80;;;;;;5042866;28;20430;-45
2022/08/19 05:44:45;;;;;;;10.65;8.27;;;15.20;89.00;;;;;;5043338;28;20051;-45
2022/08/19 05:47:14;;;;;;;10.80;9.70;;;15.20;88.90;;;;;;5044503;28;20025;-49
2022/08/19 05:49:42;;;;;;;11.32;8.82;;;15.20;88.90;;;;;;5023001;28;20103;-48
2022/08/19 05:52:10;;;;;;;10.02;8.98;;;15.20;89.00;;;;;;5039492;28;20029;-46
2022/08/19 05:54:40;;;;;;;10.52;9.13;;;15.20;89.00;;;;;;5027493;28;20088;-46
2022/08/19 05:57:08;;;;;;;10.60;9.60;;;15.20;89.00;;;;;;5042347;28;20417;-45
2022/08/19 05:59:38;;;;;;;9.38;8.38;;;15.20;89.10;;;;;;5040112;28;20026;-45
2022/08/19 06:02:05;;;;;;;;;;;15.20;89.10;;;;;;5020308;28;20772;-45
2022/08/19 06:04:34;;;;;;;12.23;10.00;;;15.20;89.10;;;;;;5044874;28;19952;-46
2022/08/19 06:07:01;;;;;;;16.77;9.40;;;15.20;89.20;;;;;;5038498;28;20418;-45
2022/08/19 06:09:28;;;;;;;9.77;8.77;;;15.20;89.20;;;;;;5033794;28;20029;-46
2022/08/19 06:12:02;;;;;;;18.65;10.25;;;15.20;89.30;;;;;;5044138;28;20040;-46
2022/08/19 06:14:32;;;;;;;11.05;9.98;;;15.20;89.30;;;;;;5032505;28;20091;-46
2022/08/19 06:17:04;;;;;;;10.02;9.00;;;15.30;89.30;;;;;;5014295;28;20032;-45
2022/08/19 06:19:32;;;;;;;10.77;8.63;;;15.30;89.30;;;;;;5045597;28;20096;-46
2022/08/19 06:22:00;;;;;;;12.55;10.15;;;15.40;89.30;;;;;;5037202;28;20029;-46
2022/08/19 06:24:28;;;;;;;11.80;9.23;;;15.40;89.30;;;;;;5032035;28;20084;-46
2022/08/19 06:26:57;;;;;;;13.55;9.82;;;15.40;89.30;;;;;;5034605;28;20413;-45
2022/08/19 06:29:25;;;;;;;9.87;8.30;;;15.50;89.30;;;;;;5014208;28;20084;-45
2022/08/19 06:31:55;;;;;;;12.60;9.68;;;15.50;89.40;;;;;;5041588;28;20059;-46
2022/08/19 06:34:27;;;;;;;9.45;8.55;;;15.60;89.30;;;;;;5044106;28;20447;-47
2022/08/19 06:36:55;;;;;;;12.13;9.82;;;15.70;89.40;;;;;;5038912;28;20117;-45
2022/08/19 06:39:26;;;;;;;11.88;9.48;;;15.80;89.30;;;;;;5030881;28;20434;-47
2022/08/19 06:41:55;;;;;;;9.98;8.10;;;15.80;89.20;;;;;;5033523;28;20450;-46
2022/08/19 06:44:25;;;;;;;9.95;8.90;;;15.90;89.20;;;;;;5050968;28;20036;-47
2022/08/19 06:46:52;;;;;;;11.20;8.13;;;15.90;89.20;;;;;;5042310;28;20098;-46
2022/08/19 06:49:21;;;;;;;9.45;8.45;;;16.00;89.20;;;;;;5062076;28;20032;-46
2022/08/19 06:51:51;;;;;;;10.18;8.18;;;16.00;89.10;;;;;;5064878;28;20028;-45
2022/08/19 06:54:18;;;;;;;;;;;16.20;89.20;;;;;;5069937;28;20036;-45
2022/08/19 06:56:45;;;;;;;10.43;8.95;;;16.20;89.10;;;;;;5069929;28;19912;-45
2022/08/19 06:59:15;;;;;;;9.00;8.10;;;16.20;89.00;;;;;;5067843;28;20032;-45
2022/08/19 07:01:47;;;;;;;10.27;8.55;;;16.30;89.10;;;;;;5044464;28;20488;-46
2022/08/19 07:04:19;;;;;;;10.23;8.88;;;16.40;89.10;;;;;;5078323;28;20036;-47
2022/08/19 07:06:48;;;;;;;10.38;9.27;;;16.40;89.00;;;;;;5067089;28;20033;-45
2022/08/19 07:09:19;;;;;;;12.50;9.43;;;16.50;89.10;;;;;;5046044;28;20059;-46
2022/08/19 07:11:48;;;;;;;8.82;7.88;;;16.60;88.90;;;;;;5049516;28;20036;-45
2022/08/19 07:14:18;;;;;;;11.40;10.27;;;16.70;88.80;;;;;;5042882;28;20033;-45
2022/08/19 07:16:47;;;;;;;13.30;8.80;;;16.80;88.60;;;;;;5051139;28;20086;-47
2022/08/19 07:19:15;;;;;;;8.50;7.45;;;16.80;88.50;;;;;;5069630;28;20052;-47
2022/08/19 07:21:43;;;;;;;9.63;7.72;;;16.90;88.40;;;;;;5046614;28;20555;-46
2022/08/19 07:24:10;;;;;;;9.10;8.20;;;16.90;88.40;;;;;;5059570;28;20364;-46
2022/08/19 07:26:42;;;;;;;8.40;7.60;;;17.00;88.30;;;;;;5058921;28;20036;-45
2022/08/19 07:29:10;;;;;;;14.00;10.48;;;17.00;87.90;;;;;;5055869;28;20033;-45
2022/08/19 07:31:38;;;;;;;9.13;6.75;;;17.10;87.60;;;;;;5061287;28;20035;-46
2022/08/19 07:34:07;;;;;;;12.57;7.68;;;17.30;87.90;;;;;;5068708;28;20024;-46
2022/08/19 07:36:36;;;;;;;;;;;17.40;87.40;;;;;;5050621;28;20033;-47
2022/08/19 07:39:13;;;;;;;6.03;5.47;;;17.50;87.00;;;;;;5046673;28;19920;-47
2022/08/19 07:41:40;;;;;;;7.07;5.82;;;17.70;87.00;;;;;;5055811;28;20036;-45
2022/08/19 07:44:07;;;;;;;8.23;6.32;;;17.80;86.50;;;;;;5031695;28;20032;-46
2022/08/19 07:46:37;;;;;;;7.13;5.40;;;17.90;86.00;;;;;;5067787;28;20052;-46
2022/08/19 07:49:07;;;;;;;;;;;18.00;86.10;;;;;;5069252;28;20033;-46
2022/08/19 07:51:33;;;;;;;9.35;6.07;;;18.20;85.70;;;;;;5037997;28;19947;-48
2022/08/19 07:53:59;;;;;;;9.43;6.07;;;18.50;84.90;;;;;;5034083;28;20039;-44
2022/08/19 07:56:27;;;;;;;6.32;5.72;;;18.60;84.40;;;;;;5061114;28;20354;-45
2022/08/19 07:58:56;;;;;;;9.10;6.15;;;18.90;84.10;;;;;;5068393;28;20425;-44
2022/08/19 08:01:27;;;;;;;5.63;4.68;;;19.10;83.80;;;;;;5042265;28;20032;-46
2022/08/19 08:09:33;;;;;;;5.82;4.10;;;19.90;81.30;;;;;;5055245;28;21512;-46
2022/08/19 08:12:11;;;;;;;5.38;3.60;;;20.20;80.60;;;;;;5067736;28;20063;-46
2022/08/19 08:14:48;;;;;;;6.43;3.65;;;20.40;80.40;;;;;;5066010;28;20032;-46
2022/08/19 08:17:19;;;;;;;5.63;4.13;;;20.50;79.30;;;;;;5064097;28;20104;-46
2022/08/19 08:19:46;;;;;;;6.05;2.97;;;20.70;79.00;;;;;;5058988;28;20449;-50
2022/08/19 08:25:22;;;;;;;6.03;3.55;;;20.90;78.20;;;;;;5065246;28;20041;-47
2022/08/19 08:27:49;;;;;;;5.00;3.50;;;20.90;77.60;;;;;;5066824;28;20036;-46
2022/08/19 08:30:22;;;;;;;4.70;3.25;;;20.90;77.00;;;;;;5062742;28;20079;-46
2022/08/19 08:32:50;;;;;;;5.80;3.00;;;20.80;77.70;;;;;;5066659;28;20036;-47
2022/08/19 08:35:19;;;;;;;5.88;3.47;;;20.90;78.50;;;;;;5064704;28;20035;-47
2022/08/19 08:37:49;;;;;;;5.88;3.88;;;20.90;77.90;;;;;;5048854;28;20029;-47
2022/08/19 08:40:38;;;;;;;7.43;3.25;;;21.00;78.30;;;;;;5056345;28;20029;-47
2022/08/19 08:43:26;;;;;;;6.60;2.90;;;21.10;78.30;;;;;;5059299;28;20017;-48
2022/08/19 08:46:17;;;;;;;5.65;3.75;;;21.10;79.10;;;;;;5059879;28;20052;-46
2022/08/19 08:49:14;;;;;;;6.97;2.95;;;21.60;80.10;;;;;;5064435;28;20082;-49
2022/08/19 08:52:04;;;;;;;4.80;2.40;;;22.00;78.00;;;;;;5059082;28;20025;-47
2022/08/19 08:54:38;;;;;;;4.70;2.20;;;22.40;76.10;;;;;;5064015;28;20025;-49
2022/08/19 08:57:34;;;;;;;5.28;1.90;;;22.50;74.60;;;;;;5049319;28;20032;-47
2022/08/19 09:00:08;;;;;;;3.72;2.08;;;22.40;75.20;;;;;;5063883;28;20667;-47
2022/08/19 09:02:35;;;;;;;6.50;1.85;;;22.40;73.70;;;;;;5058945;28;20461;-47
2022/08/19 09:05:03;;;;;;;5.05;2.22;;;22.40;75.70;;;;;;5054990;28;20329;-47
2022/08/19 09:07:50;;;;;;;6.30;2.17;;;22.50;75.00;;;;;;5068554;28;20472;-49
2022/08/19 09:10:29;;;;;;;8.65;2.13;;;22.60;73.30;;;;;;5046830;28;20041;-47
2022/08/19 09:13:14;;;;;;;3.88;1.77;;;22.60;74.40;;;;;;5068653;28;20104;-47
2022/08/19 09:15:47;;;;;;;4.13;1.73;;;22.90;74.80;;;;;;5068583;28;20108;-49
2022/08/19 09:18:14;;;;;;;6.20;2.15;;;23.10;73.50;;;;;;5063164;28;20044;-49
2022/08/19 09:20:40;;;;;;;5.32;2.17;;;23.10;71.20;;;;;;5056468;28;20032;-47
2022/08/19 09:23:07;;;;;;;3.13;1.48;;;23.40;71.20;;;;;;5067964;28;20750;-47
2022/08/19 09:25:34;;;;;;;6.68;1.95;;;23.40;72.50;;;;;;5049934;28;20044;-49
2022/08/19 09:28:03;;;;;;;2.95;1.42;;;23.40;71.90;;;;;;5050979;28;20041;-47
2022/08/19 09:30:37;;;;;;;4.88;1.83;;;23.40;72.20;;;;;;5059412;28;20529;-46
2022/08/19 09:33:06;;;;;;;5.13;1.70;;;23.50;70.50;;;;;;5050417;28;20032;-47
2022/08/19 09:35:32;;;;;;;4.45;1.73;;;23.50;71.00;;;;;;5041482;28;20044;-50
2022/08/19 09:38:00;;;;;;;2.53;1.40;;;23.70;71.70;;;;;;5065263;28;20048;-47
2022/08/19 09:40:28;;;;;;;6.45;2.33;;;23.80;72.00;;;;;;5047665;28;20030;-47
2022/08/19 09:42:54;;;;;;;3.20;1.52;;;23.90;68.50;;;;;;5064726;28;20028;-47
2022/08/19 09:45:21;;;;;;;3.60;1.38;;;23.80;69.70;;;;;;5068484;28;20060;-47
2022/08/19 09:47:50;;;;;;;3.75;1.70;;;23.80;70.50;;;;;;5071105;28;20460;-47
2022/08/19 09:50:16;;;;;;;3.33;1.60;;;23.90;71.50;;;;;;5047982;28;20477;-47
2022/08/19 09:52:42;;;;;;;5.55;1.70;;;24.10;68.30;;;;;;5048415;28;20048;-46
2022/08/19 09:55:12;;;;;;;3.28;1.40;;;24.20;68.10;;;;;;5070706;28;20453;-50
2022/08/19 09:57:41;;;;;;;4.13;1.92;;;24.10;70.80;;;;;;5068355;28;20049;-50
2022/08/19 10:00:08;;;;;;;4.23;1.57;;;24.20;70.20;;;;;;5062475;28;20044;-51
2022/08/19 10:02:37;;;;;;;3.90;1.38;;;24.20;69.40;;;;;;5041547;28;20033;-47
2022/08/19 10:07:48;;;;;;;3.40;1.45;;;23.90;69.00;;;;;;5061565;28;20282;-48
2022/08/19 10:10:14;;;;;;;3.33;1.75;;;24.00;69.90;;;;;;5059017;28;20033;-47
2022/08/19 10:12:39;;;;;;;2.45;1.42;;;24.20;69.30;;;;;;5047868;28;20039;-50
2022/08/19 10:15:06;;;;;;;3.30;1.40;;;24.40;67.70;;;;;;5036214;28;20029;-48
2022/08/19 10:17:34;;;;;;;2.50;1.45;;;24.60;70.80;;;;;;5067458;28;20031;-47
2022/08/19 10:20:06;;;;;;;8.10;2.37;;;24.80;67.40;;;;;;5063129;28;20119;-46
2022/08/19 10:22:32;;;;;;;2.67;1.17;;;24.70;67.00;;;;;;5062419;28;20056;-49
2022/08/19 10:24:58;;;;;;;3.50;1.55;;;24.70;67.10;;;;;;5070121;28;20068;-46
2022/08/19 10:27:25;;;;;;;4.10;1.63;;;24.80;65.50;;;;;;5059375;28;20033;-47
2022/08/19 10:29:54;;;;;;;2.08;1.25;;;24.70;64.50;;;;;;5060512;28;20045;-46
2022/08/19 10:32:21;;;;;;;3.53;1.60;;;24.90;66.90;;;;;;5051813;28;20516;-50
2022/08/19 10:34:52;;;;;;;3.28;1.50;;;25.00;67.00;;;;;;5066971;28;20484;-48
2022/08/19 10:37:18;;;;;;;4.22;1.80;;;25.10;66.90;;;;;;5038372;28;20038;-47
2022/08/19 10:39:47;;;;;;;3.47;1.92;;;25.20;65.40;;;;;;5069299;28;20449;-47
2022/08/19 10:42:15;;;;;;;3.22;1.58;;;25.30;64.00;;;;;;5043264;28;20039;-46
2022/08/19 10:44:46;;;;;;;2.92;1.55;;;25.20;64.50;;;;;;5065401;28;20125;-46
2022/08/19 10:47:12;;;;;;;3.05;1.65;;;25.30;65.00;;;;;;5049296;28;20460;-47
2022/08/19 10:52:33;;;;;;;3.05;1.60;;;25.10;64.60;;;;;;5068899;28;20040;-47
2022/08/19 10:52:35;;;;;;;4.68;1.60;;;25.20;64.90;;;;;;5055871;28;20399;-46
2022/08/19 10:57:52;;;;;;;4.18;2.00;;;24.80;65.30;;;;;;5042388;28;20094;-48
2022/08/19 11:00:22;;;;;;;4.53;2.40;;;24.70;66.50;;;;;;5063617;28;20032;-46
2022/08/19 11:02:48;;;;;;;4.20;3.00;;;24.60;65.70;;;;;;5032987;28;20025;-45
2022/08/19 11:05:14;;;;;;;4.43;2.10;;;24.80;65.10;;;;;;5066848;28;20039;-47
2022/08/19 11:07:44;;;;;;;5.05;2.30;;;24.90;68.70;;;;;;5070275;28;20099;-46
2022/08/19 11:10:14;;;;;;;3.70;2.45;;;24.90;68.70;;;;;;5061375;28;20061;-46
2022/08/19 11:12:40;;;;;;;4.78;3.08;;;24.90;68.40;;;;;;5042904;28;20146;-50
2022/08/19 11:15:08;;;;;;;6.97;3.80;;;25.00;66.90;;;;;;5065633;28;20033;-46
2022/08/19 11:17:35;;;;;;;4.60;2.85;;;25.00;65.50;;;;;;5067952;28;20051;-46
2022/08/19 11:20:03;;;;;;;4.47;2.47;;;25.10;66.00;;;;;;5065661;28;20021;-46
2022/08/19 11:22:31;;;;;;;6.85;2.58;;;25.20;68.20;;;;;;5069624;28;20526;-46
2022/08/19 11:24:57;;;;;;;8.30;4.45;;;25.20;65.10;;;;;;5069104;28;20055;-46
2022/08/19 11:27:22;;;;;;;4.22;2.90;;;24.90;67.60;;;;;;5065244;28;20024;-45
2022/08/19 11:29:48;;;;;;;6.07;3.30;;;25.10;69.00;;;;;;5062553;28;20110;-47
2022/08/19 11:32:15;;;;;;;6.55;4.13;;;25.30;71.30;;;;;;5065208;28;20527;-46
2022/08/19 11:34:41;;;;;;;5.25;3.53;;;25.30;65.90;;;;;;5060960;28;20458;-47
2022/08/19 11:37:08;;;;;;;5.40;4.40;;;25.50;67.30;;;;;;5062140;28;20086;-47
2022/08/19 11:39:36;;;;;;;6.40;4.72;;;25.50;63.60;;;;;;5034204;28;20132;-45
2022/08/19 11:42:54;;;;;;;5.75;3.38;;;25.40;65.40;;;;;;5039547;28;20033;-47
2022/08/19 11:44:53;;;;;;;6.20;4.00;;;25.40;64.70;;;;;;5056566;28;20045;-47
2022/08/19 11:47:19;;;;;;;4.25;2.88;;;25.40;64.30;;;;;;5064068;28;20032;-45
2022/08/19 11:49:46;;;;;;;5.78;3.97;;;25.60;64.00;;;;;;5037369;28;20528;-45
2022/08/19 11:52:12;;;;;;;4.43;3.83;;;25.70;63.80;;;;;;5062041;28;20360;-46
2022/08/19 11:54:38;;;;;;;6.15;4.10;;;25.70;63.90;;;;;;5049806;28;20099;-46
2022/08/19 11:57:04;;;;;;;5.05;3.85;;;25.60;62.80;;;;;;5058382;28;20021;-46
2022/08/19 11:59:32;;;;;;;5.38;4.60;;;25.60;63.80;;;;;;5064924;28;20078;-46
2022/08/19 12:02:00;;;;;;;6.07;3.58;;;25.60;62.60;;;;;;5057064;28;20032;-47
2022/08/19 12:04:26;;;;;;;10.73;4.35;;;25.70;64.50;;;;;;5051530;28;20063;-46
2022/08/19 12:06:52;;;;;;;6.20;2.92;;;25.80;64.70;;;;;;5056225;28;20029;-46
2022/08/19 12:09:18;;;;;;;5.22;3.33;;;25.90;66.90;;;;;;5049956;28;20503;-47
2022/08/19 12:11:44;;;;;;;5.45;3.22;;;25.60;65.20;;;;;;5064494;28;20028;-46
2022/08/19 12:14:13;;;;;;;6.63;3.10;;;25.20;70.20;;;;;;5034812;28;20035;-46
2022/08/19 12:16:40;;;;;;;;;;;25.00;68.00;;;;;;5061128;28;20025;-46
2022/08/19 12:19:06;;;;;;;8.77;2.83;;;24.90;70.00;;;;;;5068194;28;19920;-47
2022/08/19 12:21:34;;;;;;;10.60;2.58;;;24.80;70.80;;;;;;5044455;28;20741;-46
2022/08/19 12:24:01;;;;;;;5.57;3.08;;;24.90;71.50;;;;;;5056065;28;20426;-45
2022/08/19 12:26:28;;;;;;;4.13;2.30;;;24.80;70.10;;;;;;5057215;28;20051;-46
2022/08/19 12:28:54;;;;;;;9.18;2.47;;;24.80;69.20;;;;;;5034854;28;20152;-47
2022/08/19 12:31:20;;;;;;;5.15;1.77;;;24.80;69.70;;;;;;5062011;28;20472;-47
2022/08/19 12:33:46;;;;;;;5.10;2.92;;;24.70;71.30;;;;;;5065554;28;20040;-48
2022/08/19 12:36:17;;;;;;;7.28;2.70;;;24.50;70.50;;;;;;5067273;28;20032;-46
2022/08/19 12:38:43;;;;;;;6.07;3.05;;;24.40;71.30;;;;;;5067827;28;20028;-46
2022/08/19 12:41:18;;;;;;;4.75;3.45;;;24.30;70.80;;;;;;5049564;28;20024;-49
2022/08/19 12:43:44;;;;;;;5.07;2.45;;;24.40;70.60;;;;;;5055381;28;20060;-46
2022/08/19 12:46:12;;;;;;;4.65;2.30;;;24.40;73.40;;;;;;5056489;28;20044;-47
2022/08/19 12:48:41;;;;;;;4.53;2.80;;;24.50;72.90;;;;;;5061472;28;20044;-45
2022/08/19 12:51:10;;;;;;;5.93;2.80;;;24.40;72.10;;;;;;5045589;28;20167;-46
2022/08/19 12:53:37;;;;;;;7.90;2.58;;;24.40;72.10;;;;;;5040599;28;20043;-46
2022/08/19 12:56:03;;;;;;;3.97;2.47;;;24.20;70.10;;;;;;5059993;28;20029;-46
2022/08/19 12:58:29;;;;;;;4.82;2.58;;;24.10;71.40;;;;;;5045811;28;20021;-44
2022/08/19 13:00:54;;;;;;;7.00;2.55;;;24.00;72.00;;;;;;5065656;28;20354;-46
2022/08/19 13:03:22;;;;;;;5.57;2.75;;;24.10;72.70;;;;;;5065282;28;20021;-46
2022/08/19 13:05:50;;;;;;;6.10;4.18;;;24.10;72.50;;;;;;5060615;28;20036;-46
2022/08/19 13:08:16;;;;;;;5.15;2.83;;;24.20;71.40;;;;;;5049903;28;20104;-47
2022/08/19 13:10:42;;;;;;;5.50;3.53;;;24.30;72.30;;;;;;5043365;28;20032;-46
2022/08/19 13:13:11;;;;;;;4.95;3.10;;;24.30;72.50;;;;;;5051971;28;20366;-46
2022/08/19 13:15:40;;;;;;;4.38;2.63;;;24.30;71.80;;;;;;5084364;28;20051;-46
2022/08/19 13:18:08;;;;;;;3.58;2.60;;;24.30;72.10;;;;;;5079402;28;20029;-45
2022/08/19 13:20:36;;;;;;;5.80;2.78;;;24.40;72.80;;;;;;5064089;28;20079;-47